Time;durP1;ratioP1;P1;durP2;ratioP2;P2;SDS_P1;SDS_P2;PMS_P1;PMS_P2;Temp;Humidity;BMP_temperature;BMP_pressure;BME280_temperature;BME280_humidity;BME280_pressure;Samples;Min_cycle;Max_cycle;Signal;HPM_P1;HPM_P2
2021/10/21 00:00:54;;;;;;;2.93;2.43;;;;;;;16.30;81.34;99236.00;4981820;28;20244;-72
2021/10/21 00:03:20;;;;;;;3.17;2.60;;;;;;;16.25;81.66;99245.09;4982684;28;20205;-73
2021/10/21 00:05:50;;;;;;;3.20;2.13;;;;;;;16.22;82.22;99234.78;4982635;28;20686;-73
2021/10/21 00:08:18;;;;;;;3.90;2.50;;;;;;;16.17;82.06;99213.22;4990252;28;20686;-73
2021/10/21 00:10:46;;;;;;;3.47;2.57;;;;;;;16.16;81.91;99194.94;4982279;28;20221;-72
2021/10/21 00:13:13;;;;;;;3.37;2.53;;;;;;;16.15;81.95;99177.50;4985402;28;20729;-73
2021/10/21 00:15:39;;;;;;;4.07;2.40;;;;;;;16.09;82.79;99187.50;4983699;28;21016;-73
2021/10/21 00:18:06;;;;;;;2.47;2.10;;;;;;;16.04;82.96;99204.53;4986967;28;20569;-73
2021/10/21 00:20:33;;;;;;;2.93;2.33;;;;;;;16.02;82.50;99193.28;4987540;28;20732;-72
2021/10/21 00:22:59;;;;;;;3.43;2.30;;;;;;;16.01;82.74;99189.81;4987256;28;20240;-71
2021/10/21 00:25:27;;;;;;;2.70;2.17;;;;;;;15.99;82.71;99161.97;4991701;28;20205;-72
2021/10/21 00:27:54;;;;;;;3.27;2.60;;;;;;;15.95;82.66;99158.72;4984650;28;20697;-72
2021/10/21 00:30:20;;;;;;;3.57;2.50;;;;;;;15.93;82.35;99146.63;4988246;28;20754;-72
2021/10/21 00:32:47;;;;;;;3.70;2.40;;;;;;;15.93;81.86;99131.69;4985735;28;20213;-73
2021/10/21 00:35:13;;;;;;;2.63;2.10;;;;;;;15.92;81.40;99132.66;4988935;28;20228;-73
2021/10/21 00:37:40;;;;;;;2.93;2.13;;;;;;;15.90;80.68;99142.47;4984361;28;20201;-73
2021/10/21 00:40:08;;;;;;;2.20;2.00;;;;;;;15.84;80.94;99146.34;4982444;28;20205;-71
2021/10/21 00:42:36;;;;;;;2.13;1.90;;;;;;;15.79;81.02;99145.81;4988714;28;20617;-73
2021/10/21 00:45:03;;;;;;;3.40;2.00;;;;;;;15.82;79.65;99139.53;4986284;28;20224;-73
2021/10/21 00:47:30;;;;;;;3.23;2.00;;;;;;;15.81;79.70;99129.97;4988297;28;20510;-72
2021/10/21 00:49:56;;;;;;;2.90;1.70;;;;;;;15.79;79.04;99131.84;4984723;28;20236;-73
2021/10/21 00:52:24;;;;;;;3.67;1.80;;;;;;;15.77;78.96;99145.09;4988506;28;20209;-73
2021/10/21 00:54:51;;;;;;;2.07;1.77;;;;;;;15.76;78.35;99145.22;4983450;28;20208;-72
2021/10/21 00:57:18;;;;;;;2.27;1.60;;;;;;;15.75;78.19;99144.38;4992583;28;20204;-73
2021/10/21 00:59:47;;;;;;;2.27;1.60;;;;;;;15.76;77.33;99142.56;4985554;28;20248;-72
2021/10/21 01:02:14;;;;;;;2.30;1.60;;;;;;;15.75;76.35;99138.28;4990495;28;20235;-71
2021/10/21 01:04:41;;;;;;;1.70;1.60;;;;;;;15.70;77.01;99138.56;4985472;28;20209;-73
2021/10/21 01:07:08;;;;;;;1.70;1.60;;;;;;;15.67;76.02;99144.91;4986501;28;20207;-73
2021/10/21 01:09:36;;;;;;;1.50;1.40;;;;;;;15.67;76.27;99130.91;4989250;28;20200;-71
2021/10/21 01:12:04;;;;;;;1.30;1.20;;;;;;;15.65;75.92;99128.38;4984937;28;20232;-72
2021/10/21 01:14:30;;;;;;;1.23;1.13;;;;;;;15.66;75.37;99121.34;4987483;28;20573;-72
2021/10/21 01:16:58;;;;;;;1.20;1.00;;;;;;;15.71;74.48;99121.88;4982518;28;20600;-73
2021/10/21 01:19:25;;;;;;;1.40;1.27;;;;;;;15.73;74.44;99119.13;4988017;28;20601;-72
2021/10/21 01:21:55;;;;;;;1.40;1.30;;;;;;;15.71;74.52;99114.81;4982649;28;20675;-72
2021/10/21 01:24:23;;;;;;;1.67;1.30;;;;;;;15.69;75.12;99113.28;4987843;28;20212;-73
2021/10/21 01:26:51;;;;;;;1.27;1.17;;;;;;;15.67;74.52;99094.97;4987611;28;20213;-73
2021/10/21 01:29:19;;;;;;;1.60;1.37;;;;;;;15.65;75.10;99069.75;4983477;28;20264;-73
2021/10/21 01:31:47;;;;;;;2.20;1.30;;;;;;;15.64;74.79;99050.53;4990947;28;20228;-73
2021/10/21 01:34:13;;;;;;;1.67;1.50;;;;;;;15.65;74.47;99056.63;4983624;28;20215;-73
2021/10/21 01:36:41;;;;;;;1.40;1.30;;;;;;;15.64;74.93;99099.63;4991288;28;20204;-73
2021/10/21 01:39:12;;;;;;;2.40;1.30;;;;;;;15.61;75.87;99112.97;4983900;28;20275;-72
2021/10/21 01:41:39;;;;;;;1.30;1.20;;;;;;;15.61;75.55;99107.72;4985983;28;20728;-72
2021/10/21 01:44:06;;;;;;;1.30;1.20;;;;;;;15.58;75.82;99092.16;4981117;28;20776;-72
2021/10/21 01:46:33;;;;;;;1.43;1.20;;;;;;;15.56;75.84;99080.94;4989627;28;20205;-72
2021/10/21 01:48:59;;;;;;;1.47;1.30;;;;;;;15.52;76.31;99081.13;4983847;28;20208;-73
2021/10/21 01:51:26;;;;;;;1.30;1.20;;;;;;;15.48;76.60;99079.69;4983000;28;20231;-73
2021/10/21 01:53:52;;;;;;;1.30;1.20;;;;;;;15.44;76.90;99072.13;4986184;28;20212;-71
2021/10/21 01:56:20;;;;;;;1.40;1.30;;;;;;;15.43;77.09;99067.84;4983630;28;20213;-73
2021/10/21 01:58:46;;;;;;;4.37;1.30;;;;;;;15.38;77.42;99065.53;4991109;28;20722;-71
2021/10/21 02:01:12;;;;;;;1.43;1.23;;;;;;;15.34;78.08;99058.81;4983183;28;20275;-72
2021/10/21 02:03:39;;;;;;;1.63;1.40;;;;;;;15.30;78.25;99050.31;4973665;28;20215;-73
2021/10/21 02:06:05;;;;;;;2.27;1.30;;;;;;;15.27;78.53;99050.53;4984321;28;20841;-73
2021/10/21 02:08:32;;;;;;;2.73;1.30;;;;;;;15.24;79.00;99047.28;4987540;28;20214;-73
2021/10/21 02:10:59;;;;;;;2.43;1.30;;;;;;;15.24;78.61;99045.50;4987532;28;20231;-72
2021/10/21 02:13:26;;;;;;;1.73;1.60;;;;;;;15.22;79.01;99041.31;4987119;28;20308;-73
2021/10/21 02:15:53;;;;;;;2.27;1.37;;;;;;;15.21;79.14;99031.75;4986916;28;20313;-73
2021/10/21 02:18:21;;;;;;;1.43;1.27;;;;;;;15.19;79.25;99034.47;4986077;28;20203;-73
2021/10/21 02:20:47;;;;;;;1.97;1.20;;;;;;;15.20;79.36;99041.41;4987255;28;20325;-73
2021/10/21 02:23:13;;;;;;;1.90;1.10;;;;;;;15.19;79.31;99044.97;4983868;28;20204;-72
2021/10/21 02:25:40;;;;;;;2.50;1.23;;;;;;;15.15;79.44;99030.41;4985872;28;20206;-71
2021/10/21 02:28:06;;;;;;;2.47;1.20;;;;;;;15.14;79.78;99023.47;4980428;28;20227;-73
2021/10/21 02:30:34;;;;;;;2.13;1.40;;;;;;;15.09;81.53;99031.66;4986505;28;20405;-72
2021/10/21 02:33:00;;;;;;;2.70;1.20;;;;;;;15.05;82.09;99018.84;4982604;28;20216;-72
2021/10/21 02:35:26;;;;;;;1.50;1.17;;;;;;;14.97;84.09;99019.41;4984213;28;20890;-73
2021/10/21 02:37:53;;;;;;;1.27;1.10;;;;;;;14.86;85.79;99006.19;4985755;28;20582;-72
2021/10/21 02:40:19;;;;;;;1.70;1.30;;;;;;;14.77;86.59;99007.66;4983422;28;20729;-72
2021/10/21 02:42:46;;;;;;;1.13;1.03;;;;;;;14.72;88.78;99007.13;4988288;28;20202;-73
2021/10/21 02:45:12;;;;;;;1.27;1.07;;;;;;;14.66;89.86;99002.31;4986374;28;20216;-73
2021/10/21 02:47:40;;;;;;;1.83;1.30;;;;;;;14.57;92.41;99007.22;4984589;28;20211;-73
2021/10/21 02:50:07;;;;;;;2.53;1.23;;;;;;;14.52;94.47;98983.09;4985572;28;20205;-72
2021/10/21 02:52:33;;;;;;;1.90;1.50;;;;;;;14.44;96.04;98967.06;4971388;28;20212;-71
2021/10/21 02:55:00;;;;;;;2.90;1.47;;;;;;;14.40;95.96;98952.47;4984331;28;20860;-72
2021/10/21 02:57:26;;;;;;;1.73;1.30;;;;;;;14.35;96.69;98950.16;4986181;28;21080;-72
2021/10/21 02:59:52;;;;;;;1.50;1.30;;;;;;;14.27;98.24;98954.25;4985191;28;20224;-72
2021/10/21 03:02:19;;;;;;;2.80;1.50;;;;;;;14.22;99.32;98964.22;4984097;28;20589;-71
2021/10/21 03:04:47;;;;;;;2.10;1.47;;;;;;;14.16;100.00;98915.69;4990461;28;20285;-73
2021/10/21 03:07:13;;;;;;;1.57;1.47;;;;;;;14.13;100.00;98906.22;4985095;28;20218;-71
2021/10/21 03:09:39;;;;;;;1.73;1.47;;;;;;;14.10;100.00;98872.34;4982984;28;20205;-73
2021/10/21 03:12:07;;;;;;;1.60;1.30;;;;;;;14.05;100.00;98808.13;4981395;28;20233;-72
2021/10/21 03:14:33;;;;;;;1.30;1.20;;;;;;;14.04;100.00;98778.47;4981711;28;20210;-73
2021/10/21 03:16:59;;;;;;;1.30;1.20;;;;;;;14.05;100.00;98739.97;4983587;28;20657;-73
2021/10/21 03:19:26;;;;;;;1.90;1.30;;;;;;;14.03;100.00;98719.13;4985777;28;20225;-73
2021/10/21 03:21:54;;;;;;;4.67;1.60;;;;;;;14.01;100.00;98721.03;4985411;28;20231;-72
2021/10/21 03:24:20;;;;;;;1.87;1.67;;;;;;;13.97;100.00;98696.00;4988321;28;20238;-72
2021/10/21 03:26:47;;;;;;;1.70;1.30;;;;;;;13.98;100.00;98736.94;4986104;28;20209;-73
2021/10/21 03:29:13;;;;;;;1.83;1.50;;;;;;;13.98;100.00;98731.72;4986607;28;20205;-73
2021/10/21 03:31:40;;;;;;;2.13;1.33;;;;;;;13.99;100.00;98738.63;4989262;28;20230;-72
2021/10/21 03:34:06;;;;;;;1.93;1.73;;;;;;;13.98;100.00;98742.19;4981801;28;20205;-73
2021/10/21 03:36:32;;;;;;;1.60;1.50;;;;;;;13.99;100.00;98739.47;4984923;28;20301;-73
2021/10/21 03:39:01;;;;;;;1.70;1.60;;;;;;;14.02;100.00;98725.34;4979532;28;20217;-73
2021/10/21 03:41:27;;;;;;;3.53;1.70;;;;;;;14.02;100.00;98733.19;4986173;28;20280;-71
2021/10/21 03:43:54;;;;;;;2.20;1.63;;;;;;;14.03;99.94;98713.88;4970997;28;20217;-73
2021/10/21 03:46:20;;;;;;;1.90;1.70;;;;;;;14.04;99.60;98709.50;4984720;28;20210;-73
2021/10/21 03:48:46;;;;;;;1.77;1.50;;;;;;;14.06;99.37;98707.59;4984673;28;20209;-72
2021/10/21 03:51:14;;;;;;;2.10;1.63;;;;;;;14.06;99.80;98712.84;4987172;28;20317;-73
2021/10/21 03:53:41;;;;;;;1.73;1.57;;;;;;;14.04;99.75;98727.84;4989056;28;20210;-73
2021/10/21 03:56:09;;;;;;;1.60;1.50;;;;;;;14.07;98.71;98719.75;4988333;28;20705;-73
2021/10/21 03:58:36;;;;;;;1.67;1.43;;;;;;;14.07;98.33;98709.25;4992997;28;20206;-73
2021/10/21 04:01:02;;;;;;;1.67;1.33;;;;;;;14.23;95.53;98714.25;4985193;28;20226;-72
2021/10/21 04:03:29;;;;;;;1.87;1.20;;;;;;;14.27;95.80;98737.53;4989794;28;20213;-71
2021/10/21 04:05:55;;;;;;;2.47;1.60;;;;;;;14.29;96.10;98700.72;4987968;28;20217;-73
2021/10/21 04:08:21;;;;;;;1.20;1.10;;;;;;;14.34;95.30;98656.66;4992208;28;20210;-73
2021/10/21 04:10:48;;;;;;;1.27;1.17;;;;;;;14.32;95.73;98648.91;4988732;28;20222;-73
2021/10/21 04:13:16;;;;;;;1.30;1.20;;;;;;;14.33;95.95;98689.06;4989269;28;20221;-72
2021/10/21 04:15:42;;;;;;;1.37;1.20;;;;;;;14.34;95.60;98678.47;4993568;28;20642;-72
2021/10/21 04:18:09;;;;;;;2.30;1.10;;;;;;;14.34;95.64;98673.22;4986678;28;20308;-72
2021/10/21 04:20:36;;;;;;;1.43;1.20;;;;;;;14.33;95.14;98661.06;4987610;28;20236;-73
2021/10/21 04:23:02;;;;;;;4.43;1.10;;;;;;;14.36;94.68;98668.69;4987182;28;20305;-73
2021/10/21 04:25:29;;;;;;;1.10;1.00;;;;;;;14.41;94.40;98671.00;4993472;28;20213;-72
2021/10/21 04:27:56;;;;;;;1.00;1.00;;;;;;;14.46;93.77;98671.50;4981197;28;20235;-72
2021/10/21 04:30:24;;;;;;;1.87;1.20;;;;;;;14.49;93.73;98673.03;4969988;28;20232;-72
2021/10/21 04:32:51;;;;;;;1.87;1.20;;;;;;;14.48;93.60;98666.97;4989008;28;20542;-72
2021/10/21 04:35:17;;;;;;;2.40;1.13;;;;;;;14.46;94.49;98655.78;4985069;28;20205;-72
2021/10/21 04:37:44;;;;;;;2.70;1.40;;;;;;;14.46;94.65;98661.00;4986051;28;20218;-72
2021/10/21 04:40:11;;;;;;;1.57;1.20;;;;;;;14.44;94.58;98665.53;4983985;28;20222;-71
2021/10/21 04:42:38;;;;;;;2.80;1.30;;;;;;;14.43;95.54;98661.22;4987806;28;20198;-70
2021/10/21 04:45:05;;;;;;;4.20;1.40;;;;;;;14.44;95.77;98647.19;4985618;28;20214;-73
2021/10/21 04:47:33;;;;;;;2.70;1.40;;;;;;;14.41;95.28;98633.47;4989432;28;20681;-72
2021/10/21 04:49:59;;;;;;;1.87;1.40;;;;;;;14.42;95.93;98614.16;4983095;28;20198;-71
2021/10/21 04:52:25;;;;;;;1.90;1.53;;;;;;;14.41;95.58;98608.06;4989251;28;20744;-73
2021/10/21 04:54:52;;;;;;;1.77;1.50;;;;;;;14.42;95.83;98595.78;4984461;28;20641;-72
2021/10/21 04:57:18;;;;;;;2.03;1.50;;;;;;;14.37;96.54;98594.34;4986136;28;20686;-73
2021/10/21 04:59:44;;;;;;;2.50;1.37;;;;;;;14.37;96.39;98581.25;5008981;28;20711;-72
2021/10/21 05:02:11;;;;;;;1.80;1.47;;;;;;;14.37;95.81;98596.13;4988155;28;20585;-73
2021/10/21 05:04:38;;;;;;;1.53;1.40;;;;;;;14.38;95.79;98596.00;4985407;28;20201;-72
2021/10/21 05:07:05;;;;;;;2.03;1.83;;;;;;;14.37;95.91;98583.88;4985496;28;20239;-73
2021/10/21 05:09:31;;;;;;;1.40;1.30;;;;;;;14.38;95.80;98567.19;4992848;28;20202;-73
2021/10/21 05:11:57;;;;;;;1.83;1.40;;;;;;;14.36;95.86;98570.88;4984478;28;20247;-73
2021/10/21 05:14:24;;;;;;;1.70;1.60;;;;;;;14.42;95.00;98575.66;4987628;28;20211;-73
2021/10/21 05:16:50;;;;;;;2.43;1.60;;;;;;;14.44;95.30;98575.53;4983042;28;20310;-71
2021/10/21 05:19:17;;;;;;;2.73;1.50;;;;;;;14.41;96.31;98574.00;4985275;28;20205;-72
2021/10/21 05:21:44;;;;;;;1.60;1.50;;;;;;;14.41;96.39;98579.25;4984074;28;20232;-73
2021/10/21 05:24:11;;;;;;;1.70;1.60;;;;;;;14.40;98.16;98580.19;4985443;28;20212;-72
2021/10/21 05:26:37;;;;;;;2.13;1.57;;;;;;;14.36;99.00;98574.31;4989352;28;20206;-72
2021/10/21 05:29:03;;;;;;;1.43;1.33;;;;;;;14.32;98.02;98580.75;4988031;28;20243;-71
2021/10/21 05:31:30;;;;;;;1.90;1.70;;;;;;;14.29;99.01;98572.28;4989959;28;20239;-72
2021/10/21 05:33:56;;;;;;;1.60;1.37;;;;;;;14.25;100.00;98560.34;4986969;28;20218;-72
2021/10/21 05:36:22;;;;;;;1.87;1.57;;;;;;;14.17;100.00;98551.25;4990385;28;20570;-72
2021/10/21 05:38:51;;;;;;;2.37;1.70;;;;;;;14.09;100.00;98544.91;4982695;28;20231;-72
2021/10/21 05:41:18;;;;;;;1.57;1.40;;;;;;;14.01;100.00;98546.31;4984316;28;20237;-72
2021/10/21 05:43:44;;;;;;;8.13;5.90;;;;;;;13.97;100.00;98546.66;4983557;28;20210;-72
2021/10/21 05:46:10;;;;;;;7.90;4.37;;;;;;;13.88;100.00;98547.31;4987972;28;20205;-73
2021/10/21 05:48:37;;;;;;;6.10;2.80;;;;;;;13.84;100.00;98546.69;4991387;28;20205;-72
2021/10/21 05:51:03;;;;;;;2.70;1.97;;;;;;;13.76;100.00;98531.56;4985687;28;20229;-72
2021/10/21 05:53:30;;;;;;;2.13;1.93;;;;;;;13.74;100.00;98504.66;4986794;28;20201;-72
2021/10/21 05:55:58;;;;;;;3.33;2.40;;;;;;;13.69;100.00;98498.06;4982725;28;20228;-71
2021/10/21 05:58:24;;;;;;;2.60;2.33;;;;;;;13.65;100.00;98494.84;4987593;28;20206;-72
2021/10/21 06:00:51;;;;;;;2.40;2.20;;;;;;;13.61;100.00;98483.75;4984142;28;20237;-73
2021/10/21 06:03:17;;;;;;;2.20;1.93;;;;;;;13.59;100.00;98484.81;4987094;28;20210;-72
2021/10/21 06:05:43;;;;;;;2.83;2.00;;;;;;;13.53;100.00;98478.25;4984405;28;20681;-72
2021/10/21 06:08:10;;;;;;;3.40;2.10;;;;;;;13.51;100.00;98466.19;4986204;28;20409;-72
2021/10/21 06:10:36;;;;;;;2.30;1.90;;;;;;;13.52;100.00;98454.78;4981736;28;20232;-72
2021/10/21 06:13:05;;;;;;;2.40;2.20;;;;;;;13.52;100.00;98465.25;4983372;28;20213;-71
2021/10/21 06:15:32;;;;;;;1.90;1.70;;;;;;;13.52;100.00;98463.47;4984679;28;20210;-73
2021/10/21 06:18:02;;;;;;;3.10;1.97;;;;;;;13.54;100.00;98448.47;4982356;28;20213;-73
2021/10/21 06:20:28;;;;;;;5.50;2.10;;;;;;;13.54;100.00;98450.28;4983769;28;20323;-72
2021/10/21 06:22:55;;;;;;;1.70;1.60;;;;;;;13.50;100.00;98448.81;4979403;28;20207;-73
2021/10/21 06:25:22;;;;;;;3.20;2.20;;;;;;;13.51;100.00;98448.72;4986966;28;20201;-72
2021/10/21 06:27:48;;;;;;;2.43;2.00;;;;;;;13.53;100.00;98453.84;4981570;28;20217;-73
2021/10/21 06:30:16;;;;;;;2.83;1.87;;;;;;;13.61;100.00;98448.88;4985281;28;20225;-72
2021/10/21 06:32:43;;;;;;;2.30;2.10;;;;;;;13.73;100.00;98457.63;4982380;28;20627;-73
2021/10/21 06:35:14;;;;;;;2.30;1.70;;;;;;;13.80;100.00;98453.59;4983627;28;20693;-72
2021/10/21 06:37:41;;;;;;;2.17;1.90;;;;;;;13.84;100.00;98439.31;4987726;28;20300;-72
2021/10/21 06:40:08;;;;;;;2.00;1.80;;;;;;;13.90;100.00;98438.88;4979910;28;20229;-73
2021/10/21 06:42:34;;;;;;;2.33;1.70;;;;;;;13.96;100.00;98435.78;4977497;28;20205;-72
2021/10/21 06:45:01;;;;;;;5.80;1.50;;;;;;;14.05;100.00;98457.84;4982032;28;20205;-72
2021/10/21 06:47:29;;;;;;;2.20;1.43;;;;;;;14.11;100.00;98443.47;5006509;28;20565;-72
2021/10/21 06:49:55;;;;;;;4.23;1.40;;;;;;;14.19;100.00;98462.03;4983811;28;20588;-73
2021/10/21 06:52:21;;;;;;;1.80;1.47;;;;;;;14.33;98.94;98412.03;4981900;28;20581;-72
2021/10/21 06:54:48;;;;;;;2.17;1.30;;;;;;;14.42;100.00;98407.88;4982349;28;20197;-73
2021/10/21 06:57:15;;;;;;;1.67;1.40;;;;;;;14.43;99.24;98411.34;4983787;28;20206;-73
2021/10/21 06:59:41;;;;;;;1.23;1.00;;;;;;;14.57;93.58;98446.00;4985764;28;20255;-73
2021/10/21 07:02:07;;;;;;;0.80;0.77;;;;;;;14.61;94.58;98443.19;4924520;28;1308676;-72
2021/10/21 07:04:35;;;;;;;0.80;0.80;;;;;;;14.65;93.22;98455.09;4986092;28;20209;-73
2021/10/21 07:07:02;;;;;;;3.17;0.80;;;;;;;14.73;89.67;98474.53;4982650;28;20206;-72
2021/10/21 07:09:28;;;;;;;1.20;0.70;;;;;;;14.85;87.82;98487.69;4986935;28;20309;-72
2021/10/21 07:11:54;;;;;;;5.47;1.10;;;;;;;14.99;84.07;98492.69;4980309;28;20722;-73
2021/10/21 07:14:21;;;;;;;0.80;0.60;;;;;;;14.99;83.45;98486.59;4986817;28;20226;-70
2021/10/21 07:16:47;;;;;;;1.50;0.70;;;;;;;14.99;83.45;98510.22;4983934;28;20217;-73
2021/10/21 07:19:14;;;;;;;1.40;0.80;;;;;;;14.95;87.68;98514.84;4981857;28;20293;-71
2021/10/21 07:21:42;;;;;;;3.00;0.80;;;;;;;14.89;89.80;98525.81;4980170;28;20232;-71
2021/10/21 07:24:08;;;;;;;0.90;0.80;;;;;;;14.79;92.50;98530.94;4980582;28;20642;-72
2021/10/21 07:26:34;;;;;;;3.57;0.90;;;;;;;14.69;93.74;98537.88;4983880;28;20591;-72
2021/10/21 07:29:01;;;;;;;0.70;0.70;;;;;;;14.66;93.69;98541.53;4980667;28;20217;-73
2021/10/21 07:31:27;;;;;;;0.97;0.70;;;;;;;14.61;94.53;98548.91;4986313;28;20251;-71
2021/10/21 07:33:54;;;;;;;1.87;0.63;;;;;;;14.61;94.70;98545.47;4984973;28;20211;-72
2021/10/21 07:36:22;;;;;;;1.57;0.80;;;;;;;14.56;91.67;98537.91;4990506;28;20215;-73
2021/10/21 07:38:50;;;;;;;0.70;0.60;;;;;;;14.56;91.34;98541.38;4987022;28;20219;-73
2021/10/21 07:41:17;;;;;;;1.70;0.90;;;;;;;14.54;89.71;98550.31;4984481;28;20236;-72
2021/10/21 07:43:43;;;;;;;1.07;0.77;;;;;;;14.51;86.38;98561.00;4992151;28;20749;-72
2021/10/21 07:46:10;;;;;;;1.57;0.60;;;;;;;14.46;87.48;98566.63;4989443;28;20244;-72
2021/10/21 07:48:36;;;;;;;0.90;0.60;;;;;;;14.40;87.29;98567.06;4994877;28;20208;-72
2021/10/21 07:51:03;;;;;;;1.03;0.60;;;;;;;14.37;85.43;98573.38;4985440;28;20227;-73
2021/10/21 07:53:31;;;;;;;1.90;0.60;;;;;;;14.32;84.34;98578.13;4992048;28;20202;-71
2021/10/21 07:56:00;;;;;;;2.70;0.70;;;;;;;14.32;83.10;98579.94;4986372;28;20577;-73
2021/10/21 07:58:27;;;;;;;1.40;0.50;;;;;;;14.32;79.80;98585.16;4987120;28;20264;-73
2021/10/21 08:00:53;;;;;;;2.33;0.50;;;;;;;14.31;79.89;98586.09;4990200;28;20323;-73
2021/10/21 08:03:20;;;;;;;0.97;0.60;;;;;;;14.29;79.10;98591.47;4986752;28;20212;-72
2021/10/21 08:05:46;;;;;;;3.23;0.70;;;;;;;14.27;76.90;98592.53;4990807;28;20217;-73
2021/10/21 08:08:13;;;;;;;0.40;0.40;;;;;;;14.23;77.23;98585.81;4989008;28;20215;-70
2021/10/21 08:10:39;;;;;;;2.10;0.60;;;;;;;14.16;76.85;98591.53;4989072;28;20221;-72
2021/10/21 08:13:07;;;;;;;2.63;0.53;;;;;;;14.13;76.30;98580.44;4986108;28;20546;-72
2021/10/21 08:15:33;;;;;;;1.13;0.50;;;;;;;14.11;75.91;98605.94;4988221;28;20232;-71
2021/10/21 08:18:00;;;;;;;4.47;0.50;;;;;;;14.09;76.68;98592.94;4983455;28;20202;-72
2021/10/21 08:20:28;;;;;;;4.30;0.60;;;;;;;14.15;75.75;98592.47;4989112;28;20239;-72
2021/10/21 08:22:55;;;;;;;1.20;0.70;;;;;;;14.13;77.12;98594.38;4985098;28;20253;-73
2021/10/21 08:25:25;;;;;;;2.10;0.60;;;;;;;14.15;77.19;98587.22;4990117;28;20208;-72
2021/10/21 08:27:51;;;;;;;1.23;0.60;;;;;;;14.24;77.13;98601.44;4987919;28;20259;-72
2021/10/21 08:30:23;;;;;;;2.63;0.50;;;;;;;14.35;77.40;98587.53;4984707;28;20229;-71
2021/10/21 08:32:49;;;;;;;1.43;0.60;;;;;;;14.70;77.74;98595.41;4984874;28;20691;-72
2021/10/21 08:35:16;;;;;;;2.23;0.97;;;;;;;14.78;77.10;98589.63;4986668;28;20212;-73
2021/10/21 08:37:43;;;;;;;1.63;0.60;;;;;;;14.86;75.72;98592.50;4991964;28;20240;-72
2021/10/21 08:40:10;;;;;;;1.83;0.63;;;;;;;14.84;75.24;98575.19;4983718;28;20580;-72
2021/10/21 08:42:37;;;;;;;3.27;0.80;;;;;;;14.86;73.38;98596.91;4985280;28;20659;-72
2021/10/21 08:45:04;;;;;;;1.13;0.50;;;;;;;15.00;70.70;98603.72;4981006;28;20209;-73
2021/10/21 08:47:33;;;;;;;0.63;0.50;;;;;;;15.15;70.60;98595.50;4985390;28;20208;-71
2021/10/21 08:50:02;;;;;;;1.80;0.60;;;;;;;15.11;67.97;98559.97;4988175;28;20846;-72
2021/10/21 08:52:29;;;;;;;2.77;0.70;;;;;;;15.06;67.72;98562.09;4987184;28;20256;-72
2021/10/21 08:54:56;;;;;;;3.63;0.60;;;;;;;15.05;66.55;98580.59;4989896;28;20567;-71
2021/10/21 08:57:22;;;;;;;3.80;0.57;;;;;;;15.09;65.28;98580.25;4986317;28;21540;-73
2021/10/21 08:59:49;;;;;;;1.70;0.60;;;;;;;15.08;63.23;98591.69;4987131;28;20589;-73
2021/10/21 09:02:19;;;;;;;5.43;0.83;;;;;;;15.10;63.73;98588.94;5000603;28;20265;-72
2021/10/21 09:04:56;;;;;;;8.07;0.73;;;;;;;15.06;61.46;98585.72;4989271;28;20235;-73
2021/10/21 09:10:11;;;;;;;1.73;0.53;;;;;;;15.05;62.55;98578.78;4964563;28;20218;-72
2021/10/21 09:12:42;;;;;;;2.20;0.53;;;;;;;15.04;61.71;98574.50;4987027;28;20224;-71
2021/10/21 09:15:12;;;;;;;2.83;0.50;;;;;;;15.03;62.60;98572.81;4984869;28;20212;-72
2021/10/21 09:17:39;;;;;;;1.83;0.50;;;;;;;14.98;61.91;98579.38;4971613;28;20204;-72
2021/10/21 09:20:38;;;;;;;2.57;0.60;;;;;;;14.98;61.87;98571.50;4983445;28;20213;-71
2021/10/21 09:23:07;;;;;;;2.97;0.80;;;;;;;15.03;61.67;98582.50;4987971;28;20227;-72
2021/10/21 09:25:36;;;;;;;6.60;1.13;;;;;;;15.00;62.41;98598.47;4977429;28;20257;-72
2021/10/21 09:28:15;;;;;;;5.23;1.33;;;;;;;14.95;62.45;98577.81;4984650;28;20209;-72
2021/10/21 09:30:53;;;;;;;4.17;0.60;;;;;;;14.85;61.63;98572.44;4993619;28;20538;-72
2021/10/21 09:33:19;;;;;;;3.33;1.00;;;;;;;14.89;61.73;98604.53;4984977;28;20220;-72
2021/10/21 09:35:55;;;;;;;10.30;1.03;;;;;;;14.89;61.91;98602.75;4985702;28;20207;-72
2021/10/21 09:38:26;;;;;;;12.27;1.20;;;;;;;14.83;61.36;98594.50;4986375;28;20209;-73
2021/10/21 09:40:53;;;;;;;7.20;1.03;;;;;;;14.77;62.07;98603.66;4987114;28;20248;-73
2021/10/21 09:43:30;;;;;;;9.00;1.10;;;;;;;14.70;62.46;98626.06;4988682;28;20200;-72
2021/10/21 09:45:58;;;;;;;11.07;1.00;;;;;;;14.70;62.14;98613.78;4969913;28;20213;-72
2021/10/21 09:48:24;;;;;;;17.53;1.87;;;;;;;14.67;62.69;98621.91;4984820;28;20199;-73
2021/10/21 09:50:51;;;;;;;13.40;1.00;;;;;;;14.69;63.69;98621.78;4983586;28;20789;-72
2021/10/21 09:53:21;;;;;;;7.23;0.93;;;;;;;14.65;64.26;98604.59;4999065;28;20563;-72
2021/10/21 09:55:50;;;;;;;13.80;1.70;;;;;;;14.63;62.57;98609.13;4980169;28;20255;-72
2021/10/21 09:58:17;;;;;;;16.87;1.23;;;;;;;14.66;63.19;98616.78;4984992;28;20216;-71
2021/10/21 10:00:45;;;;;;;6.70;1.27;;;;;;;14.67;62.44;98626.28;4988223;28;20232;-73
2021/10/21 10:03:16;;;;;;;4.33;0.80;;;;;;;14.64;62.83;98611.63;4987035;28;20898;-73
2021/10/21 10:05:44;;;;;;;37.37;2.00;;;;;;;14.66;61.26;98637.75;4982823;28;20590;-73
2021/10/21 10:08:12;;;;;;;5.80;0.70;;;;;;;14.58;62.33;98636.53;4985616;28;20212;-73
2021/10/21 10:10:42;;;;;;;9.57;1.23;;;;;;;14.53;64.12;98629.94;4986584;28;20234;-73
2021/10/21 10:13:10;;;;;;;13.77;1.40;;;;;;;14.43;64.00;98634.19;4969437;28;20263;-72
2021/10/21 10:15:38;;;;;;;14.53;1.57;;;;;;;14.37;63.55;98636.31;4988963;28;20202;-73
2021/10/21 10:18:06;;;;;;;17.83;1.20;;;;;;;14.32;64.76;98632.34;4986288;28;20546;-71
2021/10/21 10:20:34;;;;;;;12.83;1.27;;;;;;;14.30;65.29;98647.31;4986613;28;20227;-73
2021/10/21 10:23:04;;;;;;;16.03;1.20;;;;;;;14.30;64.84;98627.22;4982987;28;20229;-72
2021/10/21 10:25:31;;;;;;;8.23;1.10;;;;;;;14.32;64.86;98624.50;4981988;28;20211;-72
2021/10/21 10:28:00;;;;;;;5.70;1.13;;;;;;;14.30;64.53;98624.59;4984530;28;20296;-72
2021/10/21 10:30:48;;;;;;;6.87;1.20;;;;;;;14.22;66.64;98626.94;4989366;28;20316;-72
2021/10/21 10:33:36;;;;;;;9.37;1.63;;;;;;;13.95;70.82;98630.59;4981548;28;20208;-71
2021/10/21 10:36:25;;;;;;;10.80;1.30;;;;;;;13.55;74.23;98609.03;4979706;28;20226;-72
2021/10/21 10:38:51;;;;;;;9.57;1.70;;;;;;;13.45;75.01;98619.28;4980525;28;20626;-72
2021/10/21 10:41:51;;;;;;;8.57;1.10;;;;;;;13.47;75.63;98606.94;4987858;28;20607;-72
2021/10/21 10:44:55;;;;;;;12.93;3.17;;;;;;;13.55;75.39;98629.97;4981128;28;20227;-72
2021/10/21 10:47:54;;;;;;;12.57;5.60;;;;;;;13.54;77.27;98630.91;4985123;28;20206;-72
2021/10/21 10:50:56;;;;;;;11.17;5.30;;;;;;;13.37;78.99;98653.88;4970368;28;20230;-71
2021/10/21 10:53:42;;;;;;;12.43;3.87;;;;;;;13.20;77.54;98678.53;4978822;28;20233;-72
2021/10/21 10:56:08;;;;;;;6.77;1.03;;;;;;;13.02;79.67;98664.91;4955768;28;20787;-72
2021/10/21 10:58:35;;;;;;;1.93;0.63;;;;;;;12.85;81.83;98697.44;4983222;28;20217;-71
2021/10/21 11:01:01;;;;;;;2.60;0.80;;;;;;;12.73;83.34;98692.19;4989768;28;20251;-71
2021/10/21 11:03:38;;;;;;;3.30;0.70;;;;;;;12.57;83.04;98679.28;4987378;28;20306;-72
2021/10/21 11:06:07;;;;;;;4.33;0.77;;;;;;;12.55;85.23;98675.91;4982458;28;20630;-71
2021/10/21 11:08:53;;;;;;;2.00;1.07;;;;;;;12.57;85.71;98687.94;4978934;28;20204;-72
2021/10/21 11:11:45;;;;;;;1.37;0.63;;;;;;;12.52;85.53;98704.88;4983506;28;20612;-72
2021/10/21 11:14:15;;;;;;;8.07;0.90;;;;;;;12.48;87.25;98722.53;4971134;28;20216;-71
2021/10/21 11:16:45;;;;;;;1.53;0.77;;;;;;;12.40;86.74;98720.41;4989158;28;20248;-71
2021/10/21 11:19:13;;;;;;;1.37;0.53;;;;;;;12.29;86.09;98752.47;4989682;28;20308;-72
2021/10/21 11:21:51;;;;;;;4.07;0.50;;;;;;;12.31;84.93;98731.44;4993330;28;20235;-71
2021/10/21 11:24:56;;;;;;;3.50;0.60;;;;;;;12.35;84.14;98732.94;4983629;28;20205;-71
2021/10/21 11:27:26;;;;;;;4.70;0.80;;;;;;;12.53;80.87;98740.53;4987338;28;20217;-72
2021/10/21 11:29:53;;;;;;;8.03;0.53;;;;;;;12.66;78.03;98737.03;4983984;28;20205;-71
2021/10/21 11:32:22;;;;;;;3.93;0.77;;;;;;;12.84;76.93;98752.44;4987379;28;20623;-71
2021/10/21 11:34:49;;;;;;;8.60;1.13;;;;;;;13.04;75.36;98772.09;4990992;28;20263;-72
2021/10/21 11:37:33;;;;;;;5.00;1.40;;;;;;;13.12;73.64;98755.88;4984812;28;20216;-71
2021/10/21 11:39:59;;;;;;;4.37;0.53;;;;;;;13.14;73.26;98754.84;4987195;28;20401;-72